sensor_id;sensor_type;location;lat;lon;timestamp;P1;durP1;ratioP1;P2;durP2;ratioP2
77220;SDS011;66217;50.004;8.266;2023-03-19T00:00:41;14.57;;;4.95;;
77220;SDS011;66217;50.004;8.266;2023-03-19T00:03:07;11.45;;;5.30;;
77220;SDS011;66217;50.004;8.266;2023-03-19T00:05:32;14.60;;;5.18;;
77220;SDS011;66217;50.004;8.266;2023-03-19T00:07:57;11.50;;;5.35;;
77220;SDS011;66217;50.004;8.266;2023-03-19T00:10:23;9.93;;;5.20;;
77220;SDS011;66217;50.004;8.266;2023-03-19T00:12:48;11.00;;;4.93;;
77220;SDS011;66217;50.004;8.266;2023-03-19T00:15:14;12.90;;;5.57;;
77220;SDS011;66217;50.004;8.266;2023-03-19T00:17:43;9.77;;;5.50;;
77220;SDS011;66217;50.004;8.266;2023-03-19T00:20:09;10.23;;;5.38;;
77220;SDS011;66217;50.004;8.266;2023-03-19T00:22:35;15.10;;;5.60;;
77220;SDS011;66217;50.004;8.266;2023-03-19T00:25:01;9.55;;;5.35;;
77220;SDS011;66217;50.004;8.266;2023-03-19T00:27:26;11.27;;;5.72;;
77220;SDS011;66217;50.004;8.266;2023-03-19T00:29:52;8.25;;;4.80;;
77220;SDS011;66217;50.004;8.266;2023-03-19T00:32:17;9.25;;;5.43;;
77220;SDS011;66217;50.004;8.266;2023-03-19T00:34:42;12.90;;;5.93;;
77220;SDS011;66217;50.004;8.266;2023-03-19T00:37:08;12.60;;;5.82;;
77220;SDS011;66217;50.004;8.266;2023-03-19T00:39:34;10.77;;;5.82;;
77220;SDS011;66217;50.004;8.266;2023-03-19T00:41:59;8.32;;;4.85;;
77220;SDS011;66217;50.004;8.266;2023-03-19T00:44:25;10.60;;;5.97;;
77220;SDS011;66217;50.004;8.266;2023-03-19T00:46:50;9.93;;;6.03;;
77220;SDS011;66217;50.004;8.266;2023-03-19T00:49:16;8.80;;;5.28;;
77220;SDS011;66217;50.004;8.266;2023-03-19T00:51:41;14.52;;;6.63;;
77220;SDS011;66217;50.004;8.266;2023-03-19T00:54:09;10.27;;;5.50;;
77220;SDS011;66217;50.004;8.266;2023-03-19T00:56:35;13.43;;;6.00;;
77220;SDS011;66217;50.004;8.266;2023-03-19T00:59:01;13.73;;;5.88;;
77220;SDS011;66217;50.004;8.266;2023-03-19T01:01:26;12.00;;;6.25;;
77220;SDS011;66217;50.004;8.266;2023-03-19T01:03:52;10.63;;;5.00;;
77220;SDS011;66217;50.004;8.266;2023-03-19T01:06:17;12.30;;;5.72;;
77220;SDS011;66217;50.004;8.266;2023-03-19T01:08:43;8.82;;;4.72;;
77220;SDS011;66217;50.004;8.266;2023-03-19T01:11:10;12.07;;;4.95;;
77220;SDS011;66217;50.004;8.266;2023-03-19T01:13:38;12.27;;;5.70;;
77220;SDS011;66217;50.004;8.266;2023-03-19T01:16:04;10.02;;;4.95;;
77220;SDS011;66217;50.004;8.266;2023-03-19T01:18:29;11.70;;;5.15;;
77220;SDS011;66217;50.004;8.266;2023-03-19T01:20:55;13.38;;;4.50;;
77220;SDS011;66217;50.004;8.266;2023-03-19T01:23:22;10.88;;;4.70;;
77220;SDS011;66217;50.004;8.266;2023-03-19T01:25:47;12.07;;;4.55;;
77220;SDS011;66217;50.004;8.266;2023-03-19T01:28:13;11.82;;;5.20;;
77220;SDS011;66217;50.004;8.266;2023-03-19T01:30:39;13.90;;;5.55;;
77220;SDS011;66217;50.004;8.266;2023-03-19T01:33:43;11.20;;;4.80;;
77220;SDS011;66217;50.004;8.266;2023-03-19T01:36:14;7.90;;;4.57;;
77220;SDS011;66217;50.004;8.266;2023-03-19T01:38:52;12.90;;;5.53;;
77220;SDS011;66217;50.004;8.266;2023-03-19T01:41:18;8.82;;;5.35;;
77220;SDS011;66217;50.004;8.266;2023-03-19T01:43:45;9.70;;;5.53;;
77220;SDS011;66217;50.004;8.266;2023-03-19T01:46:36;8.98;;;4.93;;
77220;SDS011;66217;50.004;8.266;2023-03-19T01:49:21;11.57;;;5.05;;
77220;SDS011;66217;50.004;8.266;2023-03-19T01:51:52;9.48;;;5.10;;
77220;SDS011;66217;50.004;8.266;2023-03-19T01:54:51;11.27;;;4.75;;
77220;SDS011;66217;50.004;8.266;2023-03-19T01:57:36;12.98;;;5.35;;
77220;SDS011;66217;50.004;8.266;2023-03-19T02:00:13;11.20;;;5.30;;
77220;SDS011;66217;50.004;8.266;2023-03-19T02:02:45;10.82;;;4.95;;
77220;SDS011;66217;50.004;8.266;2023-03-19T02:07:58;10.88;;;4.95;;
77220;SDS011;66217;50.004;8.266;2023-03-19T02:10:25;14.38;;;6.05;;
77220;SDS011;66217;50.004;8.266;2023-03-19T02:12:51;10.55;;;4.97;;
77220;SDS011;66217;50.004;8.266;2023-03-19T02:15:17;10.02;;;5.10;;
77220;SDS011;66217;50.004;8.266;2023-03-19T02:17:43;10.27;;;5.07;;
77220;SDS011;66217;50.004;8.266;2023-03-19T02:22:38;10.05;;;5.28;;
77220;SDS011;66217;50.004;8.266;2023-03-19T02:25:13;14.00;;;5.20;;
77220;SDS011;66217;50.004;8.266;2023-03-19T02:27:44;15.38;;;6.13;;
77220;SDS011;66217;50.004;8.266;2023-03-19T02:30:17;10.82;;;5.22;;
77220;SDS011;66217;50.004;8.266;2023-03-19T02:32:44;11.77;;;5.97;;
77220;SDS011;66217;50.004;8.266;2023-03-19T02:35:10;15.23;;;5.72;;
77220;SDS011;66217;50.004;8.266;2023-03-19T02:37:37;9.68;;;5.28;;
77220;SDS011;66217;50.004;8.266;2023-03-19T02:40:46;13.00;;;4.78;;
77220;SDS011;66217;50.004;8.266;2023-03-19T02:42:53;8.80;;;4.82;;
77220;SDS011;66217;50.004;8.266;2023-03-19T02:45:21;11.95;;;4.68;;
77220;SDS011;66217;50.004;8.266;2023-03-19T02:47:47;9.90;;;4.85;;
77220;SDS011;66217;50.004;8.266;2023-03-19T02:50:15;12.45;;;4.28;;
77220;SDS011;66217;50.004;8.266;2023-03-19T02:52:41;11.73;;;4.47;;
77220;SDS011;66217;50.004;8.266;2023-03-19T02:55:06;7.15;;;4.03;;
77220;SDS011;66217;50.004;8.266;2023-03-19T02:57:33;11.30;;;4.47;;
77220;SDS011;66217;50.004;8.266;2023-03-19T02:59:58;8.95;;;4.35;;
77220;SDS011;66217;50.004;8.266;2023-03-19T03:02:24;11.77;;;4.05;;
77220;SDS011;66217;50.004;8.266;2023-03-19T03:04:50;14.98;;;4.57;;
77220;SDS011;66217;50.004;8.266;2023-03-19T03:07:16;9.77;;;4.18;;
77220;SDS011;66217;50.004;8.266;2023-03-19T03:09:42;10.75;;;4.50;;
77220;SDS011;66217;50.004;8.266;2023-03-19T03:12:08;7.07;;;4.22;;
77220;SDS011;66217;50.004;8.266;2023-03-19T03:14:34;11.27;;;4.15;;
77220;SDS011;66217;50.004;8.266;2023-03-19T03:17:00;7.20;;;4.20;;
77220;SDS011;66217;50.004;8.266;2023-03-19T03:19:25;10.13;;;4.45;;
77220;SDS011;66217;50.004;8.266;2023-03-19T03:21:51;9.82;;;4.28;;
77220;SDS011;66217;50.004;8.266;2023-03-19T03:24:16;7.97;;;4.25;;
77220;SDS011;66217;50.004;8.266;2023-03-19T03:26:42;10.88;;;4.32;;
77220;SDS011;66217;50.004;8.266;2023-03-19T03:29:08;13.90;;;4.88;;
77220;SDS011;66217;50.004;8.266;2023-03-19T03:31:33;9.80;;;4.57;;
77220;SDS011;66217;50.004;8.266;2023-03-19T03:33:59;9.38;;;4.60;;
77220;SDS011;66217;50.004;8.266;2023-03-19T03:36:25;8.68;;;4.38;;
77220;SDS011;66217;50.004;8.266;2023-03-19T03:38:52;10.90;;;4.47;;
77220;SDS011;66217;50.004;8.266;2023-03-19T03:41:17;10.15;;;4.88;;
77220;SDS011;66217;50.004;8.266;2023-03-19T03:43:43;10.43;;;4.47;;
77220;SDS011;66217;50.004;8.266;2023-03-19T03:46:09;9.13;;;4.30;;
77220;SDS011;66217;50.004;8.266;2023-03-19T03:48:35;8.85;;;4.47;;
77220;SDS011;66217;50.004;8.266;2023-03-19T03:51:01;10.25;;;4.90;;
77220;SDS011;66217;50.004;8.266;2023-03-19T03:53:28;10.52;;;5.00;;
77220;SDS011;66217;50.004;8.266;2023-03-19T03:55:54;12.77;;;5.25;;
77220;SDS011;66217;50.004;8.266;2023-03-19T03:58:23;8.73;;;4.90;;
77220;SDS011;66217;50.004;8.266;2023-03-19T04:00:48;14.80;;;5.10;;
77220;SDS011;66217;50.004;8.266;2023-03-19T04:03:14;8.40;;;4.80;;
77220;SDS011;66217;50.004;8.266;2023-03-19T04:05:43;10.00;;;4.60;;
77220;SDS011;66217;50.004;8.266;2023-03-19T04:08:09;12.80;;;4.85;;
77220;SDS011;66217;50.004;8.266;2023-03-19T04:10:34;23.08;;;5.90;;
77220;SDS011;66217;50.004;8.266;2023-03-19T04:13:01;10.65;;;4.63;;
77220;SDS011;66217;50.004;8.266;2023-03-19T04:15:28;10.65;;;4.22;;
77220;SDS011;66217;50.004;8.266;2023-03-19T04:17:55;8.65;;;4.65;;
77220;SDS011;66217;50.004;8.266;2023-03-19T04:20:21;8.15;;;4.20;;
77220;SDS011;66217;50.004;8.266;2023-03-19T04:22:47;8.93;;;5.22;;
77220;SDS011;66217;50.004;8.266;2023-03-19T04:25:13;8.88;;;5.25;;
77220;SDS011;66217;50.004;8.266;2023-03-19T04:27:39;10.20;;;5.28;;
77220;SDS011;66217;50.004;8.266;2023-03-19T04:30:06;11.80;;;4.97;;
77220;SDS011;66217;50.004;8.266;2023-03-19T04:32:32;14.00;;;4.70;;
77220;SDS011;66217;50.004;8.266;2023-03-19T04:34:59;14.02;;;5.70;;
77220;SDS011;66217;50.004;8.266;2023-03-19T04:37:25;13.40;;;5.78;;
77220;SDS011;66217;50.004;8.266;2023-03-19T04:39:51;10.98;;;4.90;;
77220;SDS011;66217;50.004;8.266;2023-03-19T04:42:19;11.07;;;5.70;;
77220;SDS011;66217;50.004;8.266;2023-03-19T04:44:53;9.68;;;4.85;;
77220;SDS011;66217;50.004;8.266;2023-03-19T04:47:19;8.60;;;5.68;;
77220;SDS011;66217;50.004;8.266;2023-03-19T04:49:52;10.70;;;5.05;;
77220;SDS011;66217;50.004;8.266;2023-03-19T04:52:18;9.52;;;5.68;;
77220;SDS011;66217;50.004;8.266;2023-03-19T04:54:44;13.02;;;6.88;;
77220;SDS011;66217;50.004;8.266;2023-03-19T04:57:09;12.57;;;5.63;;
77220;SDS011;66217;50.004;8.266;2023-03-19T04:59:37;12.77;;;5.95;;
77220;SDS011;66217;50.004;8.266;2023-03-19T05:02:03;13.88;;;6.00;;
77220;SDS011;66217;50.004;8.266;2023-03-19T05:04:31;12.20;;;5.80;;
77220;SDS011;66217;50.004;8.266;2023-03-19T05:07:02;17.02;;;5.95;;
77220;SDS011;66217;50.004;8.266;2023-03-19T05:09:28;11.23;;;5.32;;
77220;SDS011;66217;50.004;8.266;2023-03-19T05:11:55;10.90;;;5.72;;
77220;SDS011;66217;50.004;8.266;2023-03-19T05:14:21;12.25;;;5.68;;
77220;SDS011;66217;50.004;8.266;2023-03-19T05:17:05;10.68;;;6.15;;
77220;SDS011;66217;50.004;8.266;2023-03-19T05:19:47;9.40;;;5.82;;
77220;SDS011;66217;50.004;8.266;2023-03-19T05:22:13;15.45;;;6.40;;
77220;SDS011;66217;50.004;8.266;2023-03-19T05:24:39;10.00;;;6.05;;
77220;SDS011;66217;50.004;8.266;2023-03-19T05:27:06;12.70;;;6.32;;
77220;SDS011;66217;50.004;8.266;2023-03-19T05:29:54;23.38;;;7.15;;
77220;SDS011;66217;50.004;8.266;2023-03-19T05:32:55;14.30;;;7.07;;
77220;SDS011;66217;50.004;8.266;2023-03-19T05:35:37;18.02;;;6.90;;
77220;SDS011;66217;50.004;8.266;2023-03-19T05:38:09;11.95;;;6.50;;
77220;SDS011;66217;50.004;8.266;2023-03-19T05:40:36;14.65;;;6.28;;
77220;SDS011;66217;50.004;8.266;2023-03-19T05:43:13;13.82;;;6.00;;
77220;SDS011;66217;50.004;8.266;2023-03-19T05:45:39;9.05;;;5.78;;
77220;SDS011;66217;50.004;8.266;2023-03-19T05:48:12;9.48;;;5.28;;
77220;SDS011;66217;50.004;8.266;2023-03-19T05:50:42;14.18;;;5.78;;
77220;SDS011;66217;50.004;8.266;2023-03-19T05:53:17;11.85;;;6.38;;
77220;SDS011;66217;50.004;8.266;2023-03-19T05:55:55;11.23;;;6.43;;
77220;SDS011;66217;50.004;8.266;2023-03-19T05:58:21;10.80;;;5.43;;
77220;SDS011;66217;50.004;8.266;2023-03-19T06:00:47;11.68;;;6.07;;
77220;SDS011;66217;50.004;8.266;2023-03-19T06:03:13;11.55;;;5.68;;
77220;SDS011;66217;50.004;8.266;2023-03-19T06:05:48;11.70;;;6.68;;
77220;SDS011;66217;50.004;8.266;2023-03-19T06:08:28;13.90;;;6.85;;
77220;SDS011;66217;50.004;8.266;2023-03-19T06:11:03;12.68;;;5.75;;
77220;SDS011;66217;50.004;8.266;2023-03-19T06:13:29;10.38;;;5.55;;
77220;SDS011;66217;50.004;8.266;2023-03-19T06:15:57;11.63;;;5.82;;
77220;SDS011;66217;50.004;8.266;2023-03-19T06:18:30;11.52;;;5.57;;
77220;SDS011;66217;50.004;8.266;2023-03-19T06:20:57;16.25;;;6.25;;
77220;SDS011;66217;50.004;8.266;2023-03-19T06:23:22;11.98;;;5.20;;
77220;SDS011;66217;50.004;8.266;2023-03-19T06:25:47;14.85;;;5.85;;
77220;SDS011;66217;50.004;8.266;2023-03-19T06:28:14;12.48;;;5.93;;
77220;SDS011;66217;50.004;8.266;2023-03-19T06:30:42;13.30;;;5.65;;
77220;SDS011;66217;50.004;8.266;2023-03-19T06:33:27;14.63;;;6.30;;
77220;SDS011;66217;50.004;8.266;2023-03-19T06:35:56;14.15;;;6.35;;
77220;SDS011;66217;50.004;8.266;2023-03-19T06:38:22;12.50;;;6.00;;
77220;SDS011;66217;50.004;8.266;2023-03-19T06:40:48;10.50;;;5.30;;
77220;SDS011;66217;50.004;8.266;2023-03-19T06:43:13;9.32;;;5.38;;
77220;SDS011;66217;50.004;8.266;2023-03-19T06:45:38;10.95;;;6.05;;
77220;SDS011;66217;50.004;8.266;2023-03-19T06:48:04;12.68;;;6.28;;
77220;SDS011;66217;50.004;8.266;2023-03-19T06:50:29;11.18;;;5.78;;
77220;SDS011;66217;50.004;8.266;2023-03-19T06:52:55;13.27;;;5.82;;
77220;SDS011;66217;50.004;8.266;2023-03-19T06:55:20;13.48;;;5.13;;
77220;SDS011;66217;50.004;8.266;2023-03-19T06:57:49;9.73;;;5.43;;
77220;SDS011;66217;50.004;8.266;2023-03-19T07:00:15;9.63;;;5.25;;
77220;SDS011;66217;50.004;8.266;2023-03-19T07:02:41;9.95;;;5.05;;
77220;SDS011;66217;50.004;8.266;2023-03-19T07:05:06;14.73;;;4.53;;
77220;SDS011;66217;50.004;8.266;2023-03-19T07:07:32;15.93;;;5.18;;
77220;SDS011;66217;50.004;8.266;2023-03-19T07:09:57;9.75;;;4.72;;
77220;SDS011;66217;50.004;8.266;2023-03-19T07:12:23;13.43;;;5.25;;
77220;SDS011;66217;50.004;8.266;2023-03-19T07:14:52;9.35;;;5.13;;
77220;SDS011;66217;50.004;8.266;2023-03-19T07:17:19;10.23;;;4.45;;
77220;SDS011;66217;50.004;8.266;2023-03-19T07:19:44;10.20;;;4.90;;
77220;SDS011;66217;50.004;8.266;2023-03-19T07:22:10;13.35;;;5.57;;
77220;SDS011;66217;50.004;8.266;2023-03-19T07:24:35;9.75;;;4.82;;
77220;SDS011;66217;50.004;8.266;2023-03-19T07:27:01;9.48;;;4.78;;
77220;SDS011;66217;50.004;8.266;2023-03-19T07:29:27;15.05;;;4.50;;
77220;SDS011;66217;50.004;8.266;2023-03-19T07:31:52;9.90;;;4.85;;
77220;SDS011;66217;50.004;8.266;2023-03-19T07:34:17;10.18;;;4.53;;
77220;SDS011;66217;50.004;8.266;2023-03-19T07:36:43;18.10;;;5.45;;
77220;SDS011;66217;50.004;8.266;2023-03-19T07:39:09;11.55;;;5.40;;
77220;SDS011;66217;50.004;8.266;2023-03-19T07:41:35;8.35;;;5.00;;
77220;SDS011;66217;50.004;8.266;2023-03-19T07:44:01;10.23;;;5.18;;
77220;SDS011;66217;50.004;8.266;2023-03-19T07:46:26;8.25;;;4.60;;
77220;SDS011;66217;50.004;8.266;2023-03-19T07:48:52;11.85;;;4.68;;
77220;SDS011;66217;50.004;8.266;2023-03-19T07:51:18;13.55;;;4.60;;
77220;SDS011;66217;50.004;8.266;2023-03-19T07:53:43;8.13;;;4.38;;
77220;SDS011;66217;50.004;8.266;2023-03-19T07:56:09;10.02;;;4.55;;
77220;SDS011;66217;50.004;8.266;2023-03-19T07:58:35;15.20;;;5.20;;
77220;SDS011;66217;50.004;8.266;2023-03-19T08:01:00;9.40;;;4.32;;
77220;SDS011;66217;50.004;8.266;2023-03-19T08:03:26;7.47;;;4.75;;
77220;SDS011;66217;50.004;8.266;2023-03-19T08:05:51;7.63;;;4.10;;
77220;SDS011;66217;50.004;8.266;2023-03-19T08:08:18;10.43;;;4.72;;
77220;SDS011;66217;50.004;8.266;2023-03-19T08:10:44;11.07;;;4.50;;
77220;SDS011;66217;50.004;8.266;2023-03-19T08:13:09;11.75;;;5.20;;
77220;SDS011;66217;50.004;8.266;2023-03-19T08:15:35;7.97;;;4.38;;
77220;SDS011;66217;50.004;8.266;2023-03-19T08:18:02;9.98;;;4.72;;
77220;SDS011;66217;50.004;8.266;2023-03-19T08:20:29;9.48;;;4.25;;
77220;SDS011;66217;50.004;8.266;2023-03-19T08:22:54;8.13;;;4.13;;
77220;SDS011;66217;50.004;8.266;2023-03-19T08:25:21;10.82;;;4.85;;
77220;SDS011;66217;50.004;8.266;2023-03-19T08:27:47;10.30;;;4.35;;
77220;SDS011;66217;50.004;8.266;2023-03-19T08:30:13;8.13;;;4.38;;
77220;SDS011;66217;50.004;8.266;2023-03-19T08:32:38;7.45;;;4.35;;
77220;SDS011;66217;50.004;8.266;2023-03-19T08:35:04;8.32;;;4.28;;
77220;SDS011;66217;50.004;8.266;2023-03-19T08:37:30;7.60;;;4.55;;
77220;SDS011;66217;50.004;8.266;2023-03-19T08:39:56;11.88;;;4.05;;
77220;SDS011;66217;50.004;8.266;2023-03-19T08:42:21;11.65;;;4.35;;
77220;SDS011;66217;50.004;8.266;2023-03-19T08:44:47;9.68;;;4.20;;
77220;SDS011;66217;50.004;8.266;2023-03-19T08:47:13;7.68;;;4.20;;
77220;SDS011;66217;50.004;8.266;2023-03-19T08:49:38;7.85;;;4.32;;
77220;SDS011;66217;50.004;8.266;2023-03-19T08:52:05;9.15;;;4.70;;
77220;SDS011;66217;50.004;8.266;2023-03-19T08:54:30;10.88;;;4.50;;
77220;SDS011;66217;50.004;8.266;2023-03-19T08:56:56;8.88;;;4.43;;
77220;SDS011;66217;50.004;8.266;2023-03-19T08:59:21;9.00;;;4.82;;
77220;SDS011;66217;50.004;8.266;2023-03-19T09:01:53;9.85;;;4.68;;
77220;SDS011;66217;50.004;8.266;2023-03-19T09:04:21;9.13;;;4.60;;
77220;SDS011;66217;50.004;8.266;2023-03-19T09:06:47;10.00;;;4.88;;
77220;SDS011;66217;50.004;8.266;2023-03-19T09:09:16;10.13;;;4.32;;
77220;SDS011;66217;50.004;8.266;2023-03-19T09:11:43;6.88;;;3.75;;
77220;SDS011;66217;50.004;8.266;2023-03-19T09:14:08;7.90;;;4.22;;
77220;SDS011;66217;50.004;8.266;2023-03-19T09:16:35;7.30;;;4.35;;
77220;SDS011;66217;50.004;8.266;2023-03-19T09:19:01;9.93;;;4.55;;
77220;SDS011;66217;50.004;8.266;2023-03-19T09:21:26;9.63;;;4.60;;
77220;SDS011;66217;50.004;8.266;2023-03-19T09:23:52;8.35;;;4.10;;
77220;SDS011;66217;50.004;8.266;2023-03-19T09:26:17;5.88;;;4.00;;
77220;SDS011;66217;50.004;8.266;2023-03-19T09:28:43;6.35;;;4.10;;
77220;SDS011;66217;50.004;8.266;2023-03-19T09:31:08;8.55;;;3.70;;
77220;SDS011;66217;50.004;8.266;2023-03-19T09:33:35;10.00;;;4.30;;
77220;SDS011;66217;50.004;8.266;2023-03-19T09:36:01;9.77;;;4.05;;
77220;SDS011;66217;50.004;8.266;2023-03-19T09:38:27;6.75;;;3.95;;
77220;SDS011;66217;50.004;8.266;2023-03-19T09:41:03;7.60;;;4.28;;
77220;SDS011;66217;50.004;8.266;2023-03-19T09:46:13;8.48;;;4.05;;
77220;SDS011;66217;50.004;8.266;2023-03-19T09:48:47;8.75;;;4.00;;
77220;SDS011;66217;50.004;8.266;2023-03-19T09:51:32;11.98;;;4.10;;
77220;SDS011;66217;50.004;8.266;2023-03-19T09:56:29;9.88;;;4.10;;
77220;SDS011;66217;50.004;8.266;2023-03-19T09:58:57;7.13;;;3.95;;
77220;SDS011;66217;50.004;8.266;2023-03-19T10:03:59;6.90;;;3.45;;
77220;SDS011;66217;50.004;8.266;2023-03-19T10:06:36;10.43;;;4.00;;
77220;SDS011;66217;50.004;8.266;2023-03-19T10:14:58;6.57;;;3.83;;
77220;SDS011;66217;50.004;8.266;2023-03-19T10:17:32;10.00;;;3.75;;
77220;SDS011;66217;50.004;8.266;2023-03-19T10:20:01;8.93;;;3.88;;
77220;SDS011;66217;50.004;8.266;2023-03-19T10:22:37;8.27;;;3.92;;
77220;SDS011;66217;50.004;8.266;2023-03-19T10:25:08;8.40;;;3.88;;
77220;SDS011;66217;50.004;8.266;2023-03-19T10:27:35;9.65;;;3.50;;
77220;SDS011;66217;50.004;8.266;2023-03-19T10:30:01;9.85;;;4.10;;
77220;SDS011;66217;50.004;8.266;2023-03-19T10:32:39;8.65;;;3.95;;
77220;SDS011;66217;50.004;8.266;2023-03-19T10:35:08;7.20;;;3.83;;
77220;SDS011;66217;50.004;8.266;2023-03-19T10:37:41;7.78;;;3.85;;
77220;SDS011;66217;50.004;8.266;2023-03-19T10:40:12;11.88;;;3.92;;
77220;SDS011;66217;50.004;8.266;2023-03-19T10:43:04;12.77;;;3.60;;
77220;SDS011;66217;50.004;8.266;2023-03-19T10:45:36;6.78;;;3.50;;
77220;SDS011;66217;50.004;8.266;2023-03-19T10:48:02;10.00;;;3.65;;
77220;SDS011;66217;50.004;8.266;2023-03-19T10:55:43;10.50;;;3.75;;
77220;SDS011;66217;50.004;8.266;2023-03-19T10:58:15;6.60;;;3.47;;
77220;SDS011;66217;50.004;8.266;2023-03-19T11:00:46;7.95;;;3.90;;
77220;SDS011;66217;50.004;8.266;2023-03-19T11:14:18;8.57;;;4.50;;
77220;SDS011;66217;50.004;8.266;2023-03-19T11:16:55;8.20;;;4.30;;
77220;SDS011;66217;50.004;8.266;2023-03-19T11:19:26;9.45;;;4.45;;
77220;SDS011;66217;50.004;8.266;2023-03-19T11:22:01;14.77;;;4.10;;
77220;SDS011;66217;50.004;8.266;2023-03-19T11:24:35;8.63;;;3.92;;
77220;SDS011;66217;50.004;8.266;2023-03-19T11:27:06;10.05;;;4.15;;
77220;SDS011;66217;50.004;8.266;2023-03-19T11:29:33;8.82;;;4.32;;
77220;SDS011;66217;50.004;8.266;2023-03-19T11:34:45;7.18;;;4.32;;
77220;SDS011;66217;50.004;8.266;2023-03-19T11:37:52;9.63;;;4.40;;
77220;SDS011;66217;50.004;8.266;2023-03-19T11:40:20;8.30;;;4.18;;
77220;SDS011;66217;50.004;8.266;2023-03-19T11:43:00;10.27;;;4.32;;
77220;SDS011;66217;50.004;8.266;2023-03-19T11:54:36;7.75;;;3.50;;
77220;SDS011;66217;50.004;8.266;2023-03-19T12:00:35;8.18;;;4.10;;
77220;SDS011;66217;50.004;8.266;2023-03-19T12:08:50;5.40;;;3.80;;
77220;SDS011;66217;50.004;8.266;2023-03-19T12:16:39;9.15;;;3.92;;
77220;SDS011;66217;50.004;8.266;2023-03-19T12:27:54;10.25;;;4.40;;
77220;SDS011;66217;50.004;8.266;2023-03-19T12:36:09;10.75;;;3.90;;
77220;SDS011;66217;50.004;8.266;2023-03-19T12:38:40;8.38;;;4.45;;
77220;SDS011;66217;50.004;8.266;2023-03-19T12:41:10;9.77;;;4.00;;
77220;SDS011;66217;50.004;8.266;2023-03-19T12:43:37;6.18;;;3.72;;
77220;SDS011;66217;50.004;8.266;2023-03-19T12:46:18;7.55;;;3.90;;
77220;SDS011;66217;50.004;8.266;2023-03-19T12:48:49;10.45;;;4.00;;
77220;SDS011;66217;50.004;8.266;2023-03-19T12:51:18;8.05;;;3.58;;
77220;SDS011;66217;50.004;8.266;2023-03-19T12:53:58;7.25;;;3.95;;
77220;SDS011;66217;50.004;8.266;2023-03-19T12:56:48;11.00;;;3.58;;
77220;SDS011;66217;50.004;8.266;2023-03-19T13:04:54;8.68;;;3.75;;
77220;SDS011;66217;50.004;8.266;2023-03-19T13:07:30;6.00;;;3.55;;
77220;SDS011;66217;50.004;8.266;2023-03-19T13:10:17;5.88;;;3.17;;
77220;SDS011;66217;50.004;8.266;2023-03-19T13:12:45;6.07;;;3.05;;
77220;SDS011;66217;50.004;8.266;2023-03-19T13:23:16;5.47;;;2.90;;
77220;SDS011;66217;50.004;8.266;2023-03-19T13:25:45;5.15;;;3.15;;
77220;SDS011;66217;50.004;8.266;2023-03-19T13:28:21;6.93;;;3.30;;
77220;SDS011;66217;50.004;8.266;2023-03-19T13:30:57;5.55;;;3.30;;
77220;SDS011;66217;50.004;8.266;2023-03-19T13:33:23;7.93;;;3.63;;
77220;SDS011;66217;50.004;8.266;2023-03-19T13:35:49;4.53;;;2.75;;
77220;SDS011;66217;50.004;8.266;2023-03-19T13:38:25;6.43;;;2.95;;
77220;SDS011;66217;50.004;8.266;2023-03-19T13:43:23;7.15;;;3.13;;
77220;SDS011;66217;50.004;8.266;2023-03-19T13:56:19;9.27;;;3.80;;
77220;SDS011;66217;50.004;8.266;2023-03-19T13:58:49;7.03;;;3.30;;
77220;SDS011;66217;50.004;8.266;2023-03-19T14:03:57;5.75;;;3.28;;
77220;SDS011;66217;50.004;8.266;2023-03-19T14:08:57;4.85;;;2.95;;
77220;SDS011;66217;50.004;8.266;2023-03-19T14:11:23;5.97;;;3.17;;
77220;SDS011;66217;50.004;8.266;2023-03-19T14:13:50;5.30;;;3.13;;
77220;SDS011;66217;50.004;8.266;2023-03-19T14:16:17;6.57;;;2.70;;
77220;SDS011;66217;50.004;8.266;2023-03-19T14:18:48;4.68;;;2.80;;
77220;SDS011;66217;50.004;8.266;2023-03-19T14:21:15;5.55;;;2.78;;
77220;SDS011;66217;50.004;8.266;2023-03-19T14:23:52;4.53;;;3.03;;
77220;SDS011;66217;50.004;8.266;2023-03-19T14:26:22;4.70;;;2.75;;
77220;SDS011;66217;50.004;8.266;2023-03-19T14:28:52;3.15;;;2.08;;
77220;SDS011;66217;50.004;8.266;2023-03-19T14:31:22;4.60;;;2.30;;
77220;SDS011;66217;50.004;8.266;2023-03-19T14:33:52;7.25;;;2.42;;
77220;SDS011;66217;50.004;8.266;2023-03-19T14:36:22;4.13;;;2.20;;
77220;SDS011;66217;50.004;8.266;2023-03-19T14:41:24;2.80;;;1.65;;
77220;SDS011;66217;50.004;8.266;2023-03-19T14:52:29;3.53;;;2.10;;
77220;SDS011;66217;50.004;8.266;2023-03-19T14:54:58;4.25;;;2.10;;
77220;SDS011;66217;50.004;8.266;2023-03-19T14:57:28;3.45;;;1.95;;
77220;SDS011;66217;50.004;8.266;2023-03-19T14:59:57;6.88;;;3.10;;
77220;SDS011;66217;50.004;8.266;2023-03-19T15:02:36;3.72;;;2.10;;
77220;SDS011;66217;50.004;8.266;2023-03-19T15:05:09;3.35;;;2.00;;
77220;SDS011;66217;50.004;8.266;2023-03-19T15:07:43;3.17;;;2.03;;
77220;SDS011;66217;50.004;8.266;2023-03-19T15:10:16;3.47;;;2.10;;
77220;SDS011;66217;50.004;8.266;2023-03-19T15:18:14;3.85;;;1.88;;
77220;SDS011;66217;50.004;8.266;2023-03-19T15:20:44;3.35;;;1.90;;
77220;SDS011;66217;50.004;8.266;2023-03-19T15:23:11;2.40;;;1.85;;
77220;SDS011;66217;50.004;8.266;2023-03-19T15:25:51;3.53;;;2.47;;
77220;SDS011;66217;50.004;8.266;2023-03-19T15:28:31;5.50;;;2.80;;
77220;SDS011;66217;50.004;8.266;2023-03-19T15:31:02;5.43;;;2.30;;
77220;SDS011;66217;50.004;8.266;2023-03-19T15:33:36;4.15;;;1.77;;
77220;SDS011;66217;50.004;8.266;2023-03-19T15:38:45;3.83;;;2.20;;
77220;SDS011;66217;50.004;8.266;2023-03-19T15:41:23;4.03;;;2.30;;
77220;SDS011;66217;50.004;8.266;2023-03-19T15:43:49;5.45;;;2.42;;
77220;SDS011;66217;50.004;8.266;2023-03-19T15:46:16;3.85;;;1.98;;
77220;SDS011;66217;50.004;8.266;2023-03-19T15:48:46;2.80;;;2.00;;
77220;SDS011;66217;50.004;8.266;2023-03-19T15:53:40;3.30;;;1.70;;
77220;SDS011;66217;50.004;8.266;2023-03-19T15:56:05;3.38;;;2.15;;
77220;SDS011;66217;50.004;8.266;2023-03-19T15:58:35;3.22;;;2.00;;
77220;SDS011;66217;50.004;8.266;2023-03-19T16:01:04;6.40;;;2.95;;
77220;SDS011;66217;50.004;8.266;2023-03-19T16:03:33;4.60;;;2.47;;
77220;SDS011;66217;50.004;8.266;2023-03-19T16:06:04;5.28;;;2.40;;
77220;SDS011;66217;50.004;8.266;2023-03-19T16:08:32;4.50;;;2.28;;
77220;SDS011;66217;50.004;8.266;2023-03-19T16:11:43;4.32;;;2.35;;
77220;SDS011;66217;50.004;8.266;2023-03-19T16:16:23;6.30;;;3.05;;
77220;SDS011;66217;50.004;8.266;2023-03-19T16:21:20;6.00;;;2.60;;
77220;SDS011;66217;50.004;8.266;2023-03-19T16:23:49;4.18;;;2.42;;
77220;SDS011;66217;50.004;8.266;2023-03-19T16:29:04;4.57;;;2.40;;
77220;SDS011;66217;50.004;8.266;2023-03-19T16:31:30;3.58;;;2.35;;
77220;SDS011;66217;50.004;8.266;2023-03-19T16:34:00;4.95;;;2.30;;
77220;SDS011;66217;50.004;8.266;2023-03-19T16:36:26;3.10;;;2.20;;
77220;SDS011;66217;50.004;8.266;2023-03-19T16:38:58;3.65;;;2.33;;
77220;SDS011;66217;50.004;8.266;2023-03-19T16:41:38;4.65;;;2.70;;
77220;SDS011;66217;50.004;8.266;2023-03-19T16:44:38;6.15;;;2.70;;
77220;SDS011;66217;50.004;8.266;2023-03-19T16:46:56;4.47;;;2.65;;
77220;SDS011;66217;50.004;8.266;2023-03-19T16:49:22;5.75;;;2.60;;
77220;SDS011;66217;50.004;8.266;2023-03-19T16:51:47;4.55;;;2.53;;
77220;SDS011;66217;50.004;8.266;2023-03-19T16:54:13;5.72;;;2.40;;
77220;SDS011;66217;50.004;8.266;2023-03-19T16:56:38;5.90;;;2.45;;
77220;SDS011;66217;50.004;8.266;2023-03-19T16:59:04;5.57;;;2.92;;
77220;SDS011;66217;50.004;8.266;2023-03-19T17:01:29;4.07;;;2.67;;
77220;SDS011;66217;50.004;8.266;2023-03-19T17:03:55;6.22;;;2.38;;
77220;SDS011;66217;50.004;8.266;2023-03-19T17:06:21;3.80;;;2.10;;
77220;SDS011;66217;50.004;8.266;2023-03-19T17:08:46;3.97;;;2.50;;